sensor_id;sensor_type;location;lat;lon;timestamp;temperature;humidity
65419;DHT22;52027;50.658;14.004;2022-11-09T00:01:21;21.63;45.54
65419;DHT22;52027;50.658;14.004;2022-11-09T00:03:47;21.63;45.53
65419;DHT22;52027;50.658;14.004;2022-11-09T00:06:12;21.62;45.50
65419;DHT22;52027;50.658;14.004;2022-11-09T00:08:39;21.62;45.48
65419;DHT22;52027;50.658;14.004;2022-11-09T00:11:07;21.61;45.50
65419;DHT22;52027;50.658;14.004;2022-11-09T00:13:40;21.62;45.52
65419;DHT22;52027;50.658;14.004;2022-11-09T00:16:07;21.61;45.48
65419;DHT22;52027;50.658;14.004;2022-11-09T00:18:34;21.62;45.48
65419;DHT22;52027;50.658;14.004;2022-11-09T00:21:07;21.62;45.45
65419;DHT22;52027;50.658;14.004;2022-11-09T00:23:32;21.63;45.45
65419;DHT22;52027;50.658;14.004;2022-11-09T00:26:07;21.63;45.48
65419;DHT22;52027;50.658;14.004;2022-11-09T00:28:33;21.61;45.45
65419;DHT22;52027;50.658;14.004;2022-11-09T00:31:03;21.62;45.45
65419;DHT22;52027;50.658;14.004;2022-11-09T00:33:29;21.63;45.42
65419;DHT22;52027;50.658;14.004;2022-11-09T00:35:54;21.61;45.42
65419;DHT22;52027;50.658;14.004;2022-11-09T00:38:20;21.62;45.37
65419;DHT22;52027;50.658;14.004;2022-11-09T00:40:45;21.61;45.42
65419;DHT22;52027;50.658;14.004;2022-11-09T00:43:11;21.62;45.38
65419;DHT22;52027;50.658;14.004;2022-11-09T00:45:36;21.62;45.42
65419;DHT22;52027;50.658;14.004;2022-11-09T00:48:02;21.61;45.39
65419;DHT22;52027;50.658;14.004;2022-11-09T00:50:28;21.59;45.35
65419;DHT22;52027;50.658;14.004;2022-11-09T00:52:53;21.59;45.41
65419;DHT22;52027;50.658;14.004;2022-11-09T00:55:18;21.62;45.38
65419;DHT22;52027;50.658;14.004;2022-11-09T00:57:49;21.62;45.36
65419;DHT22;52027;50.658;14.004;2022-11-09T01:00:18;21.62;45.39
65419;DHT22;52027;50.658;14.004;2022-11-09T01:02:44;21.61;45.33
65419;DHT22;52027;50.658;14.004;2022-11-09T01:05:10;21.61;45.34
65419;DHT22;52027;50.658;14.004;2022-11-09T01:07:36;21.61;45.35
65419;DHT22;52027;50.658;14.004;2022-11-09T01:10:03;21.59;45.34
65419;DHT22;52027;50.658;14.004;2022-11-09T01:12:28;21.59;45.35
65419;DHT22;52027;50.658;14.004;2022-11-09T01:14:53;21.61;45.31
65419;DHT22;52027;50.658;14.004;2022-11-09T01:17:19;21.59;45.31
65419;DHT22;52027;50.658;14.004;2022-11-09T01:19:44;21.58;45.31
65419;DHT22;52027;50.658;14.004;2022-11-09T01:22:09;21.58;45.31
65419;DHT22;52027;50.658;14.004;2022-11-09T01:24:35;21.58;45.31
65419;DHT22;52027;50.658;14.004;2022-11-09T01:27:00;21.58;45.28
65419;DHT22;52027;50.658;14.004;2022-11-09T01:29:25;21.55;45.30
65419;DHT22;52027;50.658;14.004;2022-11-09T01:31:53;21.56;45.28
65419;DHT22;52027;50.658;14.004;2022-11-09T01:34:18;21.56;45.32
65419;DHT22;52027;50.658;14.004;2022-11-09T01:36:44;21.58;45.31
65419;DHT22;52027;50.658;14.004;2022-11-09T01:39:09;21.56;45.26
65419;DHT22;52027;50.658;14.004;2022-11-09T01:41:34;21.56;45.28
65419;DHT22;52027;50.658;14.004;2022-11-09T01:46:36;21.56;45.29
65419;DHT22;52027;50.658;14.004;2022-11-09T01:49:07;21.55;45.26
65419;DHT22;52027;50.658;14.004;2022-11-09T01:51:42;21.55;45.23
65419;DHT22;52027;50.658;14.004;2022-11-09T01:54:19;21.55;45.30
65419;DHT22;52027;50.658;14.004;2022-11-09T01:56:48;21.55;45.25
65419;DHT22;52027;50.658;14.004;2022-11-09T01:59:17;21.53;45.28
65419;DHT22;52027;50.658;14.004;2022-11-09T02:01:45;21.55;45.26
65419;DHT22;52027;50.658;14.004;2022-11-09T02:04:22;21.52;45.27
65419;DHT22;52027;50.658;14.004;2022-11-09T02:06:49;21.53;45.28
65419;DHT22;52027;50.658;14.004;2022-11-09T02:11:48;21.53;45.25
65419;DHT22;52027;50.658;14.004;2022-11-09T02:14:14;21.55;45.19
65419;DHT22;52027;50.658;14.004;2022-11-09T02:16:40;21.53;45.24
65419;DHT22;52027;50.658;14.004;2022-11-09T02:19:06;21.53;45.18
65419;DHT22;52027;50.658;14.004;2022-11-09T02:21:31;21.53;45.20
65419;DHT22;52027;50.658;14.004;2022-11-09T02:23:58;21.53;45.24
65419;DHT22;52027;50.658;14.004;2022-11-09T02:26:50;21.51;45.21
65419;DHT22;52027;50.658;14.004;2022-11-09T02:29:25;21.51;45.21
65419;DHT22;52027;50.658;14.004;2022-11-09T02:31:54;21.52;45.20
65419;DHT22;52027;50.658;14.004;2022-11-09T02:34:23;21.51;45.18
65419;DHT22;52027;50.658;14.004;2022-11-09T02:36:49;21.52;45.18
65419;DHT22;52027;50.658;14.004;2022-11-09T02:39:17;21.52;45.15
65419;DHT22;52027;50.658;14.004;2022-11-09T02:41:50;21.51;45.12
65419;DHT22;52027;50.658;14.004;2022-11-09T02:44:17;21.51;45.15
65419;DHT22;52027;50.658;14.004;2022-11-09T02:46:43;21.51;45.21
65419;DHT22;52027;50.658;14.004;2022-11-09T02:49:09;21.51;45.21
65419;DHT22;52027;50.658;14.004;2022-11-09T02:51:34;21.51;45.14
65419;DHT22;52027;50.658;14.004;2022-11-09T02:54:00;21.51;45.15
65419;DHT22;52027;50.658;14.004;2022-11-09T02:56:25;21.52;45.13
65419;DHT22;52027;50.658;14.004;2022-11-09T02:58:50;21.49;45.14
65419;DHT22;52027;50.658;14.004;2022-11-09T03:01:16;21.51;45.21
65419;DHT22;52027;50.658;14.004;2022-11-09T03:03:41;21.51;45.14
65419;DHT22;52027;50.658;14.004;2022-11-09T03:06:06;21.49;45.17
65419;DHT22;52027;50.658;14.004;2022-11-09T03:08:32;21.48;45.14
65419;DHT22;52027;50.658;14.004;2022-11-09T03:11:00;21.49;45.17
65419;DHT22;52027;50.658;14.004;2022-11-09T03:13:25;21.49;45.15
65419;DHT22;52027;50.658;14.004;2022-11-09T03:15:51;21.51;45.15
65419;DHT22;52027;50.658;14.004;2022-11-09T03:18:16;21.46;45.15
65419;DHT22;52027;50.658;14.004;2022-11-09T03:20:42;21.51;45.14
65419;DHT22;52027;50.658;14.004;2022-11-09T03:23:07;21.48;45.09
65419;DHT22;52027;50.658;14.004;2022-11-09T03:25:32;21.49;45.11
65419;DHT22;52027;50.658;14.004;2022-11-09T03:27:59;21.46;45.10
65419;DHT22;52027;50.658;14.004;2022-11-09T03:30:25;21.49;45.02
65419;DHT22;52027;50.658;14.004;2022-11-09T03:32:59;21.48;45.10
65419;DHT22;52027;50.658;14.004;2022-11-09T03:35:24;21.45;45.10
65419;DHT22;52027;50.658;14.004;2022-11-09T03:37:50;21.46;45.07
65419;DHT22;52027;50.658;14.004;2022-11-09T03:40:15;21.45;45.10
65419;DHT22;52027;50.658;14.004;2022-11-09T03:42:45;21.48;45.07
65419;DHT22;52027;50.658;14.004;2022-11-09T03:45:15;21.49;45.08
65419;DHT22;52027;50.658;14.004;2022-11-09T03:47:44;21.46;45.05
65419;DHT22;52027;50.658;14.004;2022-11-09T03:50:11;21.48;45.02
65419;DHT22;52027;50.658;14.004;2022-11-09T03:52:37;21.46;45.07
65419;DHT22;52027;50.658;14.004;2022-11-09T03:55:04;21.48;45.02
65419;DHT22;52027;50.658;14.004;2022-11-09T03:57:29;21.51;44.99
65419;DHT22;52027;50.658;14.004;2022-11-09T03:59:55;21.49;45.01
65419;DHT22;52027;50.658;14.004;2022-11-09T04:02:20;21.49;44.99
65419;DHT22;52027;50.658;14.004;2022-11-09T04:04:45;21.49;44.99
65419;DHT22;52027;50.658;14.004;2022-11-09T04:07:11;21.51;44.98
65419;DHT22;52027;50.658;14.004;2022-11-09T04:09:36;21.51;44.98
65419;DHT22;52027;50.658;14.004;2022-11-09T04:12:02;21.49;44.98
65419;DHT22;52027;50.658;14.004;2022-11-09T04:14:28;21.48;44.96
65419;DHT22;52027;50.658;14.004;2022-11-09T04:16:53;21.49;45.01
65419;DHT22;52027;50.658;14.004;2022-11-09T04:19:18;21.49;44.97
65419;DHT22;52027;50.658;14.004;2022-11-09T04:21:43;21.49;44.93
65419;DHT22;52027;50.658;14.004;2022-11-09T04:24:09;21.48;44.98
65419;DHT22;52027;50.658;14.004;2022-11-09T04:26:34;21.48;45.02
65419;DHT22;52027;50.658;14.004;2022-11-09T04:28:59;21.48;44.98
65419;DHT22;52027;50.658;14.004;2022-11-09T04:31:25;21.48;44.98
65419;DHT22;52027;50.658;14.004;2022-11-09T04:33:50;21.46;44.99
65419;DHT22;52027;50.658;14.004;2022-11-09T04:36:16;21.46;44.96
65419;DHT22;52027;50.658;14.004;2022-11-09T04:38:42;21.48;44.92
65419;DHT22;52027;50.658;14.004;2022-11-09T04:41:07;21.46;44.93
65419;DHT22;52027;50.658;14.004;2022-11-09T04:43:33;21.46;44.94
65419;DHT22;52027;50.658;14.004;2022-11-09T04:46:01;21.44;44.94
65419;DHT22;52027;50.658;14.004;2022-11-09T04:48:28;21.44;44.92
65419;DHT22;52027;50.658;14.004;2022-11-09T04:50:59;21.48;44.95
65419;DHT22;52027;50.658;14.004;2022-11-09T04:53:25;21.45;44.95
65419;DHT22;52027;50.658;14.004;2022-11-09T04:55:51;21.45;44.94
65419;DHT22;52027;50.658;14.004;2022-11-09T04:58:16;21.46;44.94
65419;DHT22;52027;50.658;14.004;2022-11-09T05:00:41;21.45;44.99
65419;DHT22;52027;50.658;14.004;2022-11-09T05:03:07;21.48;45.06
65419;DHT22;52027;50.658;14.004;2022-11-09T05:05:34;21.46;45.00
65419;DHT22;52027;50.658;14.004;2022-11-09T05:08:00;21.46;44.99
65419;DHT22;52027;50.658;14.004;2022-11-09T05:10:25;21.49;44.94
65419;DHT22;52027;50.658;14.004;2022-11-09T05:12:59;21.48;44.94
65419;DHT22;52027;50.658;14.004;2022-11-09T05:15:25;21.48;44.98
65419;DHT22;52027;50.658;14.004;2022-11-09T05:17:50;21.48;45.01
65419;DHT22;52027;50.658;14.004;2022-11-09T05:20:16;21.51;45.00
65419;DHT22;52027;50.658;14.004;2022-11-09T05:22:41;21.52;45.00
65419;DHT22;52027;50.658;14.004;2022-11-09T05:25:25;21.52;45.02
65419;DHT22;52027;50.658;14.004;2022-11-09T05:27:51;21.52;45.04
65419;DHT22;52027;50.658;14.004;2022-11-09T05:30:17;21.53;44.93
65419;DHT22;52027;50.658;14.004;2022-11-09T05:32:42;21.51;44.97
65419;DHT22;52027;50.658;14.004;2022-11-09T05:35:08;21.53;44.88
65419;DHT22;52027;50.658;14.004;2022-11-09T05:37:33;21.55;44.96
65419;DHT22;52027;50.658;14.004;2022-11-09T05:39:59;21.58;44.96
65419;DHT22;52027;50.658;14.004;2022-11-09T05:42:24;21.55;44.92
65419;DHT22;52027;50.658;14.004;2022-11-09T05:44:49;21.58;45.00
65419;DHT22;52027;50.658;14.004;2022-11-09T05:47:15;21.61;44.96
65419;DHT22;52027;50.658;14.004;2022-11-09T05:49:40;21.62;44.98
65419;DHT22;52027;50.658;14.004;2022-11-09T05:52:05;21.61;45.00
65419;DHT22;52027;50.658;14.004;2022-11-09T05:54:31;21.59;44.97
65419;DHT22;52027;50.658;14.004;2022-11-09T05:56:56;21.59;45.01
65419;DHT22;52027;50.658;14.004;2022-11-09T05:59:21;21.61;44.97
65419;DHT22;52027;50.658;14.004;2022-11-09T06:01:46;21.58;44.98
65419;DHT22;52027;50.658;14.004;2022-11-09T06:04:12;21.61;45.02
65419;DHT22;52027;50.658;14.004;2022-11-09T06:06:37;21.61;44.97
65419;DHT22;52027;50.658;14.004;2022-11-09T06:09:02;21.63;44.99
65419;DHT22;52027;50.658;14.004;2022-11-09T06:11:28;21.62;45.02
65419;DHT22;52027;50.658;14.004;2022-11-09T06:13:53;21.62;45.00
65419;DHT22;52027;50.658;14.004;2022-11-09T06:16:18;21.61;45.00
65419;DHT22;52027;50.658;14.004;2022-11-09T06:18:44;21.63;45.02
65419;DHT22;52027;50.658;14.004;2022-11-09T06:21:09;21.63;45.07
65419;DHT22;52027;50.658;14.004;2022-11-09T06:23:35;21.63;45.05
65419;DHT22;52027;50.658;14.004;2022-11-09T06:26:04;21.65;45.16
65419;DHT22;52027;50.658;14.004;2022-11-09T06:28:34;21.62;45.17
65419;DHT22;52027;50.658;14.004;2022-11-09T06:31:01;21.63;45.15
65419;DHT22;52027;50.658;14.004;2022-11-09T06:33:29;21.63;45.16
65419;DHT22;52027;50.658;14.004;2022-11-09T06:35:55;21.63;45.21
65419;DHT22;52027;50.658;14.004;2022-11-09T06:38:21;21.63;45.24
65419;DHT22;52027;50.658;14.004;2022-11-09T06:40:50;21.65;45.28
65419;DHT22;52027;50.658;14.004;2022-11-09T06:43:16;21.66;45.28
65419;DHT22;52027;50.658;14.004;2022-11-09T06:45:41;21.63;45.32
65419;DHT22;52027;50.658;14.004;2022-11-09T06:48:09;21.65;45.33
65419;DHT22;52027;50.658;14.004;2022-11-09T06:50:34;21.66;45.33
65419;DHT22;52027;50.658;14.004;2022-11-09T06:53:01;21.67;45.35
65419;DHT22;52027;50.658;14.004;2022-11-09T06:55:28;21.66;45.39
65419;DHT22;52027;50.658;14.004;2022-11-09T06:57:54;21.71;45.40
65419;DHT22;52027;50.658;14.004;2022-11-09T07:00:19;21.71;45.37
65419;DHT22;52027;50.658;14.004;2022-11-09T07:02:45;21.69;45.46
65419;DHT22;52027;50.658;14.004;2022-11-09T07:05:10;21.69;45.51
65419;DHT22;52027;50.658;14.004;2022-11-09T07:07:36;21.67;45.57
65419;DHT22;52027;50.658;14.004;2022-11-09T07:10:02;21.72;45.57
65419;DHT22;52027;50.658;14.004;2022-11-09T07:12:27;21.71;45.60
65419;DHT22;52027;50.658;14.004;2022-11-09T07:14:53;21.71;45.70
65419;DHT22;52027;50.658;14.004;2022-11-09T07:17:18;21.71;45.72
65419;DHT22;52027;50.658;14.004;2022-11-09T07:19:43;21.71;45.80
65419;DHT22;52027;50.658;14.004;2022-11-09T07:22:09;21.71;45.81
65419;DHT22;52027;50.658;14.004;2022-11-09T07:24:34;21.72;45.84
65419;DHT22;52027;50.658;14.004;2022-11-09T07:26:59;21.72;45.97
65419;DHT22;52027;50.658;14.004;2022-11-09T07:29:25;21.72;45.95
65419;DHT22;52027;50.658;14.004;2022-11-09T07:31:50;21.75;46.28
65419;DHT22;52027;50.658;14.004;2022-11-09T07:34:15;21.75;46.30
65419;DHT22;52027;50.658;14.004;2022-11-09T07:36:41;21.75;46.35
65419;DHT22;52027;50.658;14.004;2022-11-09T07:39:06;21.76;46.35
65419;DHT22;52027;50.658;14.004;2022-11-09T07:41:31;21.76;46.32
65419;DHT22;52027;50.658;14.004;2022-11-09T07:43:57;21.79;46.38
65419;DHT22;52027;50.658;14.004;2022-11-09T07:46:22;21.79;46.35
65419;DHT22;52027;50.658;14.004;2022-11-09T07:48:48;21.80;46.38
65419;DHT22;52027;50.658;14.004;2022-11-09T07:51:13;21.80;46.32
65419;DHT22;52027;50.658;14.004;2022-11-09T07:53:38;21.80;46.32
65419;DHT22;52027;50.658;14.004;2022-11-09T07:56:04;21.79;46.25
65419;DHT22;52027;50.658;14.004;2022-11-09T07:58:30;21.80;46.28
65419;DHT22;52027;50.658;14.004;2022-11-09T08:00:55;21.80;46.36
65419;DHT22;52027;50.658;14.004;2022-11-09T08:03:22;21.79;46.33
65419;DHT22;52027;50.658;14.004;2022-11-09T08:05:48;21.80;46.32
65419;DHT22;52027;50.658;14.004;2022-11-09T08:08:14;21.79;46.25
65419;DHT22;52027;50.658;14.004;2022-11-09T08:10:41;21.80;46.29
65419;DHT22;52027;50.658;14.004;2022-11-09T08:13:12;21.79;46.33
65419;DHT22;52027;50.658;14.004;2022-11-09T08:15:39;21.78;46.33
65419;DHT22;52027;50.658;14.004;2022-11-09T08:18:10;21.80;46.25
65419;DHT22;52027;50.658;14.004;2022-11-09T08:20:36;21.80;46.31
65419;DHT22;52027;50.658;14.004;2022-11-09T08:23:02;21.82;46.35
65419;DHT22;52027;50.658;14.004;2022-11-09T08:25:27;21.80;46.53
65419;DHT22;52027;50.658;14.004;2022-11-09T08:27:55;21.80;46.47
65419;DHT22;52027;50.658;14.004;2022-11-09T08:30:21;21.82;46.51
65419;DHT22;52027;50.658;14.004;2022-11-09T08:32:47;21.82;46.55
65419;DHT22;52027;50.658;14.004;2022-11-09T08:35:16;21.82;46.53
65419;DHT22;52027;50.658;14.004;2022-11-09T08:37:45;21.83;46.67
65419;DHT22;52027;50.658;14.004;2022-11-09T08:40:11;21.83;46.65
65419;DHT22;52027;50.658;14.004;2022-11-09T08:42:37;21.88;46.66
65419;DHT22;52027;50.658;14.004;2022-11-09T08:45:05;21.85;46.66
65419;DHT22;52027;50.658;14.004;2022-11-09T08:47:30;21.89;46.67
65419;DHT22;52027;50.658;14.004;2022-11-09T08:49:56;21.89;46.62
65419;DHT22;52027;50.658;14.004;2022-11-09T08:52:21;21.92;46.62
65419;DHT22;52027;50.658;14.004;2022-11-09T08:54:47;21.90;46.64
65419;DHT22;52027;50.658;14.004;2022-11-09T08:57:12;21.90;46.71
65419;DHT22;52027;50.658;14.004;2022-11-09T08:59:37;21.90;46.69
65419;DHT22;52027;50.658;14.004;2022-11-09T09:02:03;21.93;46.64
65419;DHT22;52027;50.658;14.004;2022-11-09T09:04:28;21.92;46.66
65419;DHT22;52027;50.658;14.004;2022-11-09T09:06:54;21.96;46.64
65419;DHT22;52027;50.658;14.004;2022-11-09T09:09:20;21.96;46.56
65419;DHT22;52027;50.658;14.004;2022-11-09T09:11:45;21.96;46.52
65419;DHT22;52027;50.658;14.004;2022-11-09T09:14:10;21.99;46.51
65419;DHT22;52027;50.658;14.004;2022-11-09T09:16:36;21.99;46.52
65419;DHT22;52027;50.658;14.004;2022-11-09T09:19:01;21.99;46.48
65419;DHT22;52027;50.658;14.004;2022-11-09T09:21:26;22.00;46.60
65419;DHT22;52027;50.658;14.004;2022-11-09T09:23:52;22.01;46.67
65419;DHT22;52027;50.658;14.004;2022-11-09T09:26:17;22.03;46.69
65419;DHT22;52027;50.658;14.004;2022-11-09T09:28:42;22.06;46.67
65419;DHT22;52027;50.658;14.004;2022-11-09T09:31:09;22.07;46.60
65419;DHT22;52027;50.658;14.004;2022-11-09T09:33:34;22.10;46.53
65419;DHT22;52027;50.658;14.004;2022-11-09T09:36:00;22.13;46.56
65419;DHT22;52027;50.658;14.004;2022-11-09T09:38:26;22.16;46.59
65419;DHT22;52027;50.658;14.004;2022-11-09T09:41:00;22.17;46.45
65419;DHT22;52027;50.658;14.004;2022-11-09T09:43:40;22.18;46.37
65419;DHT22;52027;50.658;14.004;2022-11-09T09:46:21;22.22;46.39
65419;DHT22;52027;50.658;14.004;2022-11-09T09:49:04;22.25;46.36
65419;DHT22;52027;50.658;14.004;2022-11-09T09:51:37;22.25;46.44
65419;DHT22;52027;50.658;14.004;2022-11-09T09:54:14;22.25;46.40
65419;DHT22;52027;50.658;14.004;2022-11-09T09:56:43;22.28;46.55
65419;DHT22;52027;50.658;14.004;2022-11-09T10:01:59;22.22;46.40
65419;DHT22;52027;50.658;14.004;2022-11-09T10:04:45;22.20;45.57
65419;DHT22;52027;50.658;14.004;2022-11-09T10:20:49;21.94;44.20
65419;DHT22;52027;50.658;14.004;2022-11-09T10:26:14;21.86;44.15
65419;DHT22;52027;50.658;14.004;2022-11-09T10:28:41;21.76;43.93
65419;DHT22;52027;50.658;14.004;2022-11-09T10:31:16;21.66;44.00
65419;DHT22;52027;50.658;14.004;2022-11-09T10:33:48;21.65;44.10
65419;DHT22;52027;50.658;14.004;2022-11-09T10:36:23;21.63;43.70
65419;DHT22;52027;50.658;14.004;2022-11-09T10:38:50;21.63;44.07
65419;DHT22;52027;50.658;14.004;2022-11-09T10:43:52;21.69;44.70
65419;DHT22;52027;50.658;14.004;2022-11-09T10:46:17;21.76;44.94
65419;DHT22;52027;50.658;14.004;2022-11-09T10:48:45;21.85;44.97
65419;DHT22;52027;50.658;14.004;2022-11-09T10:51:40;21.88;45.05
65419;DHT22;52027;50.658;14.004;2022-11-09T10:54:18;21.93;45.17
65419;DHT22;52027;50.658;14.004;2022-11-09T10:57:30;21.97;45.20
65419;DHT22;52027;50.658;14.004;2022-11-09T10:59:53;22.01;45.21
65419;DHT22;52027;50.658;14.004;2022-11-09T11:07:41;22.04;44.35
65419;DHT22;52027;50.658;14.004;2022-11-09T11:12:35;21.99;44.57
65419;DHT22;52027;50.658;14.004;2022-11-09T11:15:00;21.94;44.14
65419;DHT22;52027;50.658;14.004;2022-11-09T11:17:28;21.90;43.83
65419;DHT22;52027;50.658;14.004;2022-11-09T11:22:47;21.80;43.42
65419;DHT22;52027;50.658;14.004;2022-11-09T11:25:20;21.73;43.67
65419;DHT22;52027;50.658;14.004;2022-11-09T11:28:03;21.62;41.72
65419;DHT22;52027;50.658;14.004;2022-11-09T11:30:33;21.38;41.27
65419;DHT22;52027;50.658;14.004;2022-11-09T11:33:12;21.20;42.73
65419;DHT22;52027;50.658;14.004;2022-11-09T11:38:38;21.08;43.50
65419;DHT22;52027;50.658;14.004;2022-11-09T11:41:32;21.14;42.94
65419;DHT22;52027;50.658;14.004;2022-11-09T11:49:48;21.30;44.21
65419;DHT22;52027;50.658;14.004;2022-11-09T11:55:12;21.41;44.42
65419;DHT22;52027;50.658;14.004;2022-11-09T11:57:59;21.44;44.69
65419;DHT22;52027;50.658;14.004;2022-11-09T12:00:26;21.49;44.99
65419;DHT22;52027;50.658;14.004;2022-11-09T12:08:21;21.58;45.05
65419;DHT22;52027;50.658;14.004;2022-11-09T12:13:36;21.67;45.20
65419;DHT22;52027;50.658;14.004;2022-11-09T12:16:20;21.66;45.24
65419;DHT22;52027;50.658;14.004;2022-11-09T12:21:46;21.73;45.21
65419;DHT22;52027;50.658;14.004;2022-11-09T12:24:27;21.78;45.24
65419;DHT22;52027;50.658;14.004;2022-11-09T12:33:35;21.80;45.31
65419;DHT22;52027;50.658;14.004;2022-11-09T12:36:01;21.79;45.40
65419;DHT22;52027;50.658;14.004;2022-11-09T12:38:34;21.80;45.44
65419;DHT22;52027;50.658;14.004;2022-11-09T12:41:10;21.85;45.50
65419;DHT22;52027;50.658;14.004;2022-11-09T12:46:39;21.88;45.51
65419;DHT22;52027;50.658;14.004;2022-11-09T12:49:21;21.89;45.56
65419;DHT22;52027;50.658;14.004;2022-11-09T12:51:47;21.90;45.63
65419;DHT22;52027;50.658;14.004;2022-11-09T12:54:13;21.89;45.79
65419;DHT22;52027;50.658;14.004;2022-11-09T12:56:55;21.90;45.79
65419;DHT22;52027;50.658;14.004;2022-11-09T13:01:54;21.90;45.82
65419;DHT22;52027;50.658;14.004;2022-11-09T13:04:22;21.92;45.96
65419;DHT22;52027;50.658;14.004;2022-11-09T13:09:35;21.92;45.93
65419;DHT22;52027;50.658;14.004;2022-11-09T13:12:18;21.92;45.96
65419;DHT22;52027;50.658;14.004;2022-11-09T13:14:44;21.92;45.93
65419;DHT22;52027;50.658;14.004;2022-11-09T13:19:56;21.94;46.08
65419;DHT22;52027;50.658;14.004;2022-11-09T13:30:00;21.96;46.74
65419;DHT22;52027;50.658;14.004;2022-11-09T13:32:29;21.96;46.74
65419;DHT22;52027;50.658;14.004;2022-11-09T13:35:01;21.96;46.74
65419;DHT22;52027;50.658;14.004;2022-11-09T13:37:52;21.99;46.71
65419;DHT22;52027;50.658;14.004;2022-11-09T13:43:00;21.97;46.78
65419;DHT22;52027;50.658;14.004;2022-11-09T13:50:55;21.99;46.96
65419;DHT22;52027;50.658;14.004;2022-11-09T13:56:41;21.99;47.07
65419;DHT22;52027;50.658;14.004;2022-11-09T13:59:12;21.99;47.20
65419;DHT22;52027;50.658;14.004;2022-11-09T14:01:50;21.99;47.14
65419;DHT22;52027;50.658;14.004;2022-11-09T14:06:45;22.00;47.16
65419;DHT22;52027;50.658;14.004;2022-11-09T14:09:13;21.99;47.17
65419;DHT22;52027;50.658;14.004;2022-11-09T14:12:02;21.97;47.10
65419;DHT22;52027;50.658;14.004;2022-11-09T14:14:51;22.00;47.09
65419;DHT22;52027;50.658;14.004;2022-11-09T14:17:31;22.00;47.19
65419;DHT22;52027;50.658;14.004;2022-11-09T14:22:41;22.00;47.30
65419;DHT22;52027;50.658;14.004;2022-11-09T14:25:18;22.01;47.41
65419;DHT22;52027;50.658;14.004;2022-11-09T14:27:54;22.01;47.26
65419;DHT22;52027;50.658;14.004;2022-11-09T14:30:27;22.04;47.30
65419;DHT22;52027;50.658;14.004;2022-11-09T14:32:54;22.01;47.42
65419;DHT22;52027;50.658;14.004;2022-11-09T14:35:21;22.00;47.47
65419;DHT22;52027;50.658;14.004;2022-11-09T14:37:49;22.01;47.42
65419;DHT22;52027;50.658;14.004;2022-11-09T14:40:22;22.01;47.49
65419;DHT22;52027;50.658;14.004;2022-11-09T14:42:59;22.01;47.58
65419;DHT22;52027;50.658;14.004;2022-11-09T14:45:26;22.03;47.59
65419;DHT22;52027;50.658;14.004;2022-11-09T14:47:56;22.03;47.62
65419;DHT22;52027;50.658;14.004;2022-11-09T14:50:26;22.01;47.69
65419;DHT22;52027;50.658;14.004;2022-11-09T14:52:53;22.03;47.73
65419;DHT22;52027;50.658;14.004;2022-11-09T14:55:20;22.01;47.58
65419;DHT22;52027;50.658;14.004;2022-11-09T14:57:47;22.04;47.57
65419;DHT22;52027;50.658;14.004;2022-11-09T15:00:24;22.04;47.50
65419;DHT22;52027;50.658;14.004;2022-11-09T15:02:50;22.01;47.57
65419;DHT22;52027;50.658;14.004;2022-11-09T15:07:56;22.03;47.66
65419;DHT22;52027;50.658;14.004;2022-11-09T15:10:23;21.99;47.59
65419;DHT22;52027;50.658;14.004;2022-11-09T15:12:56;22.01;47.61
65419;DHT22;52027;50.658;14.004;2022-11-09T15:15:25;22.00;47.66
65419;DHT22;52027;50.658;14.004;2022-11-09T15:17:51;21.97;47.65
65419;DHT22;52027;50.658;14.004;2022-11-09T15:23:19;21.99;47.72
65419;DHT22;52027;50.658;14.004;2022-11-09T15:30:38;21.93;47.65
65419;DHT22;52027;50.658;14.004;2022-11-09T15:35:59;21.89;47.66
65419;DHT22;52027;50.658;14.004;2022-11-09T15:41:08;21.86;47.72
65419;DHT22;52027;50.658;14.004;2022-11-09T15:43:34;21.83;47.73
65419;DHT22;52027;50.658;14.004;2022-11-09T15:46:00;21.86;47.78
65419;DHT22;52027;50.658;14.004;2022-11-09T15:48:26;21.83;47.71
65419;DHT22;52027;50.658;14.004;2022-11-09T15:50:52;21.83;47.72
65419;DHT22;52027;50.658;14.004;2022-11-09T15:53:18;21.79;47.75
65419;DHT22;52027;50.658;14.004;2022-11-09T15:55:43;21.83;47.81
65419;DHT22;52027;50.658;14.004;2022-11-09T15:58:13;21.78;47.82
65419;DHT22;52027;50.658;14.004;2022-11-09T16:00:39;21.76;47.84
65419;DHT22;52027;50.658;14.004;2022-11-09T16:03:04;21.73;47.76
65419;DHT22;52027;50.658;14.004;2022-11-09T16:05:30;21.73;47.77
65419;DHT22;52027;50.658;14.004;2022-11-09T16:07:55;21.72;47.82
65419;DHT22;52027;50.658;14.004;2022-11-09T16:10:21;21.73;47.85
65419;DHT22;52027;50.658;14.004;2022-11-09T16:12:55;21.72;47.79
65419;DHT22;52027;50.658;14.004;2022-11-09T16:15:25;21.71;47.79
65419;DHT22;52027;50.658;14.004;2022-11-09T16:17:51;21.69;47.83
65419;DHT22;52027;50.658;14.004;2022-11-09T16:20:17;21.69;47.81
65419;DHT22;52027;50.658;14.004;2022-11-09T16:22:43;21.69;47.83
65419;DHT22;52027;50.658;14.004;2022-11-09T16:25:09;21.67;47.80
65419;DHT22;52027;50.658;14.004;2022-11-09T16:27:34;21.67;47.80
65419;DHT22;52027;50.658;14.004;2022-11-09T16:30:00;21.65;47.81
65419;DHT22;52027;50.658;14.004;2022-11-09T16:32:26;21.63;47.81
65419;DHT22;52027;50.658;14.004;2022-11-09T16:34:51;21.65;47.85
65419;DHT22;52027;50.658;14.004;2022-11-09T16:37:17;21.62;47.79
65419;DHT22;52027;50.658;14.004;2022-11-09T16:39:43;21.59;47.77
65419;DHT22;52027;50.658;14.004;2022-11-09T16:42:10;21.62;47.82
65419;DHT22;52027;50.658;14.004;2022-11-09T16:44:39;21.62;47.79
65419;DHT22;52027;50.658;14.004;2022-11-09T16:47:09;21.58;47.76
65419;DHT22;52027;50.658;14.004;2022-11-09T16:49:35;21.59;47.80
65419;DHT22;52027;50.658;14.004;2022-11-09T16:52:00;21.56;47.86
65419;DHT22;52027;50.658;14.004;2022-11-09T16:54:26;21.56;47.85
65419;DHT22;52027;50.658;14.004;2022-11-09T16:56:51;21.55;47.88
65419;DHT22;52027;50.658;14.004;2022-11-09T16:59:18;21.56;47.82
65419;DHT22;52027;50.658;14.004;2022-11-09T17:01:57;21.53;47.86
65419;DHT22;52027;50.658;14.004;2022-11-09T17:04:24;21.53;47.83
65419;DHT22;52027;50.658;14.004;2022-11-09T17:06:50;21.55;47.78
65419;DHT22;52027;50.658;14.004;2022-11-09T17:09:17;21.55;47.85
65419;DHT22;52027;50.658;14.004;2022-11-09T17:11:43;21.55;47.77
65419;DHT22;52027;50.658;14.004;2022-11-09T17:14:08;21.51;47.80
65419;DHT22;52027;50.658;14.004;2022-11-09T17:16:34;21.52;47.85
65419;DHT22;52027;50.658;14.004;2022-11-09T17:18:59;21.52;47.79